SARL/AOL METAR and TAF weather

Enter ICAO airport designator
Station Type Date Time Source
SARL METAR 2019/08/19 08:00 UTC NOAA

SARL 190800Z 16012KT CAVOK 06/04 Q1026


Station Type Date Time Source
SARL Decoded METAR 2019/08/19 08:00 UTC NOAA

Station name not available
Aug 19, 2019 - 04:00 AM EDT / 2019.08.19 0800 UTC
Wind: from the SSE (160 degrees) at 14 MPH (12 KT):0
Visibility: greater than 7 mile(s):0
Temperature: 42 F (6 C)
Dew Point: 39 F (4 C)
Relative Humidity: 86%
Pressure (altimeter): 30.30 in. Hg (1026 hPa)
ob: SARL 190800Z 16012KT CAVOK 06/04 Q1026
cycle: 8

Station Type Date Time Source
SARL TAF UTC NOAA

Error!

Example: see airport list